createdAt,value
2023-08-02T03:32:49.770Z,18.87
2023-08-02T03:35:16.969Z,18.96
2023-08-02T03:37:44.022Z,19.25
2023-08-02T03:40:11.537Z,19.14
2023-08-02T03:42:38.560Z,19.00
2023-08-02T03:45:06.052Z,19.37
2023-08-02T03:47:33.195Z,19.17
2023-08-02T03:50:00.534Z,19.08
2023-08-02T03:52:27.642Z,19.07
2023-08-02T03:54:54.783Z,19.26
2023-08-02T03:57:21.826Z,19.25
2023-08-02T03:59:48.917Z,19.18
2023-08-02T04:02:15.959Z,19.13
2023-08-02T04:04:44.465Z,19.13
2023-08-02T04:07:11.617Z,18.96
2023-08-02T04:09:38.731Z,18.91
2023-08-02T04:12:06.311Z,18.81
2023-08-02T04:14:33.596Z,18.97
2023-08-02T04:17:00.628Z,19.09
2023-08-02T04:19:27.741Z,19.04
2023-08-02T04:21:54.779Z,18.92
2023-08-02T04:24:21.866Z,19.17
2023-08-02T04:26:49.238Z,18.99
2023-08-02T04:29:16.330Z,19.12
2023-08-02T04:31:43.556Z,19.20
2023-08-02T04:34:10.833Z,19.13
2023-08-02T04:36:37.882Z,19.11
2023-08-02T04:39:05.138Z,19.20
2023-08-02T04:41:32.227Z,19.30
2023-08-02T04:43:59.326Z,19.29
2023-08-02T04:46:26.857Z,19.56
2023-08-02T04:48:54.303Z,19.41
2023-08-02T04:51:21.341Z,19.33
2023-08-02T04:53:51.470Z,19.41
2023-08-02T04:56:18.745Z,19.54
2023-08-02T04:58:45.870Z,19.63
2023-08-02T05:01:13.129Z,19.68
2023-08-02T05:03:40.274Z,19.68
2023-08-02T05:06:07.446Z,19.67
2023-08-02T05:08:36.445Z,19.78
2023-08-02T05:11:06.990Z,19.88
2023-08-02T05:13:34.345Z,20.04
2023-08-02T05:16:01.584Z,20.05
2023-08-02T05:18:28.782Z,20.04
2023-08-02T05:20:55.867Z,20.10
2023-08-02T05:23:23.193Z,20.19
2023-08-02T05:25:50.266Z,20.24
2023-08-02T05:28:17.360Z,20.59
2023-08-02T05:30:44.390Z,20.27
2023-08-02T05:33:11.458Z,20.11
2023-08-02T05:35:38.568Z,19.61
2023-08-02T05:38:05.773Z,18.79
2023-08-02T05:40:33.436Z,18.95
2023-08-02T05:43:00.502Z,19.33
2023-08-02T05:45:27.584Z,19.36
2023-08-02T05:47:54.715Z,19.73
2023-08-02T05:50:21.855Z,19.93
2023-08-02T05:52:49.186Z,20.18
2023-08-02T05:55:16.617Z,20.35
2023-08-02T05:57:43.790Z,20.37
2023-08-02T06:00:11.335Z,20.32
2023-08-02T06:02:39.855Z,20.24
2023-08-02T06:05:07.301Z,20.31
2023-08-02T06:07:34.829Z,19.79
2023-08-02T06:10:01.966Z,19.92
2023-08-02T06:12:29.285Z,19.94
2023-08-02T06:14:56.370Z,19.81
2023-08-02T06:17:23.622Z,20.14
2023-08-02T06:19:50.701Z,20.26
2023-08-02T06:22:17.913Z,20.28
2023-08-02T06:24:45.238Z,20.31
2023-08-02T06:27:12.324Z,20.56
2023-08-02T06:29:39.473Z,19.45
2023-08-02T06:32:06.969Z,19.61
2023-08-02T06:34:34.361Z,19.73
2023-08-02T06:37:01.456Z,18.99
2023-08-02T06:39:28.510Z,19.01
2023-08-02T06:41:55.653Z,19.40
2023-08-02T06:44:23.178Z,19.46
2023-08-02T06:46:50.373Z,19.90
2023-08-02T06:49:18.465Z,19.82
2023-08-02T06:51:45.859Z,20.15
2023-08-02T06:54:13.559Z,19.29
2023-08-02T06:56:40.935Z,19.76
2023-08-02T06:59:07.977Z,19.55
2023-08-02T07:01:35.023Z,19.09
2023-08-02T07:04:02.356Z,19.66
2023-08-02T07:06:29.522Z,19.60
2023-08-02T07:08:57.905Z,19.08
2023-08-02T07:11:35.856Z,19.44
2023-08-02T07:14:04.691Z,19.90
2023-08-02T07:16:31.834Z,19.84
2023-08-02T07:19:01.507Z,19.78
2023-08-02T07:21:28.611Z,20.01
2023-08-02T07:23:55.888Z,19.89
2023-08-02T07:26:23.978Z,20.01
2023-08-02T07:28:51.009Z,19.97
2023-08-02T07:31:18.138Z,19.91
2023-08-02T07:33:46.535Z,20.10
2023-08-02T07:36:15.394Z,19.81
2023-08-02T07:38:42.924Z,19.76
2023-08-02T07:41:10.201Z,19.98
2023-08-02T07:43:37.508Z,20.14
2023-08-02T07:46:04.713Z,19.14
2023-08-02T07:48:32.023Z,18.43
2023-08-02T07:51:04.180Z,18.17
2023-08-02T07:53:31.306Z,17.43
2023-08-02T07:56:04.908Z,17.33
2023-08-02T07:58:32.069Z,18.12
2023-08-02T08:01:05.648Z,18.36
2023-08-02T08:03:32.705Z,18.45
2023-08-02T08:05:59.790Z,18.55
2023-08-02T08:08:26.875Z,18.68
2023-08-02T08:10:54.007Z,18.56
2023-08-02T08:13:22.052Z,18.46
2023-08-02T08:15:49.234Z,18.41
2023-08-02T08:18:16.525Z,17.91
2023-08-02T08:20:43.659Z,18.09
2023-08-02T08:23:10.847Z,17.07
2023-08-02T08:25:37.958Z,17.18
2023-08-02T08:28:05.326Z,17.03
2023-08-02T08:30:32.406Z,16.86
2023-08-02T08:32:59.580Z,17.42
2023-08-02T08:35:26.676Z,17.83
2023-08-02T08:37:54.347Z,17.57
2023-08-02T08:40:21.728Z,18.17
2023-08-02T08:42:52.687Z,18.63
2023-08-02T08:45:22.558Z,18.63
2023-08-02T08:47:50.174Z,18.70
2023-08-02T08:50:18.471Z,19.01
2023-08-02T08:52:47.434Z,18.53
2023-08-02T08:55:15.820Z,18.50
2023-08-02T08:57:43.760Z,18.65
2023-08-02T09:00:11.495Z,18.34
2023-08-02T09:02:40.074Z,18.67
2023-08-02T09:05:07.684Z,18.52
2023-08-02T09:07:35.015Z,18.20
2023-08-02T09:10:03.340Z,18.04
2023-08-02T09:12:32.276Z,17.54
2023-08-02T09:15:04.153Z,17.22
2023-08-02T09:17:50.525Z,17.77
2023-08-02T09:20:21.684Z,16.64
2023-08-02T09:22:48.872Z,16.71
2023-08-02T09:25:22.775Z,16.88
2023-08-02T09:27:50.236Z,17.49
2023-08-02T09:30:28.413Z,17.90
2023-08-02T09:33:08.811Z,18.60
2023-08-02T09:35:49.241Z,17.77
2023-08-02T09:38:17.623Z,17.24
2023-08-02T09:41:26.319Z,17.68
2023-08-02T09:43:35.722Z,17.92
2023-08-02T09:46:03.010Z,18.00
2023-08-02T09:48:37.187Z,18.26
2023-08-02T09:51:05.092Z,17.63
2023-08-02T09:53:32.434Z,17.27
2023-08-02T09:56:00.084Z,17.92
2023-08-02T09:58:27.806Z,17.27
2023-08-02T10:00:54.910Z,17.30
2023-08-02T10:03:26.317Z,17.51
2023-08-02T10:05:54.349Z,17.92
2023-08-02T10:08:21.404Z,17.52
2023-08-02T10:10:49.359Z,16.71
2023-08-02T10:13:21.157Z,17.24
2023-08-02T10:15:50.380Z,18.21
2023-08-02T10:18:18.231Z,18.12
2023-08-02T10:20:47.271Z,18.42
2023-08-02T10:23:14.489Z,18.28
2023-08-02T10:25:41.772Z,18.44
2023-08-02T10:28:09.090Z,18.72
2023-08-02T10:30:36.190Z,18.34
2023-08-02T10:33:16.389Z,17.79
2023-08-02T10:36:03.849Z,17.85
2023-08-02T10:38:40.300Z,17.89
2023-08-02T10:41:09.785Z,17.75
2023-08-02T10:44:06.293Z,18.50
2023-08-02T10:46:34.377Z,18.22
2023-08-02T10:49:10.700Z,17.82
2023-08-02T10:51:42.299Z,17.80
2023-08-02T10:54:23.520Z,17.82
2023-08-02T10:56:53.667Z,18.23
2023-08-02T10:59:23.646Z,18.39
2023-08-02T11:01:56.816Z,18.15
2023-08-02T11:04:24.586Z,17.91
2023-08-02T11:06:51.907Z,17.82
2023-08-02T11:09:19.524Z,18.52
2023-08-02T11:11:48.096Z,19.07
2023-08-02T11:14:29.365Z,19.33
2023-08-02T11:16:56.940Z,19.04
2023-08-02T11:19:25.700Z,19.00
2023-08-02T11:21:56.914Z,19.53
2023-08-02T11:24:27.761Z,19.97
2023-08-02T11:26:58.281Z,19.81
2023-08-02T11:29:25.601Z,19.69
2023-08-02T11:31:55.924Z,18.93
2023-08-02T11:34:24.548Z,19.30
2023-08-02T11:36:51.755Z,19.22
2023-08-02T11:39:19.738Z,19.12
2023-08-02T11:41:47.907Z,19.24
2023-08-02T11:44:18.776Z,19.91
2023-08-02T11:46:53.613Z,19.32
2023-08-02T11:49:20.745Z,19.79
2023-08-02T11:51:47.768Z,19.87
2023-08-02T11:54:15.652Z,19.68
2023-08-02T11:56:43.126Z,19.77
2023-08-02T11:59:11.246Z,20.29
2023-08-02T12:01:46.622Z,20.57
2023-08-02T12:04:13.922Z,20.63
2023-08-02T12:06:53.475Z,20.44
2023-08-02T12:09:21.083Z,20.91
2023-08-02T12:11:53.372Z,21.12
2023-08-02T12:14:30.381Z,20.44
2023-08-02T12:16:57.674Z,20.61
2023-08-02T12:19:40.969Z,20.69
2023-08-02T12:22:08.153Z,20.24
2023-08-02T12:24:35.218Z,21.04
2023-08-02T12:27:17.802Z,20.80
2023-08-02T12:29:45.606Z,20.98
2023-08-02T12:32:27.417Z,21.03
2023-08-02T12:35:01.798Z,20.99
2023-08-02T12:37:37.498Z,21.42
2023-08-02T12:40:06.165Z,21.71
2023-08-02T12:42:34.365Z,21.12
2023-08-02T12:47:33.090Z,21.03
2023-08-02T12:50:00.256Z,21.32
2023-08-02T12:52:27.365Z,21.81
2023-08-02T12:54:54.586Z,21.74
2023-08-02T12:57:21.645Z,22.27
2023-08-02T12:59:48.689Z,22.81
2023-08-02T13:02:15.726Z,22.91
2023-08-02T13:04:42.822Z,22.32
2023-08-02T13:07:10.134Z,22.77
2023-08-02T13:09:39.805Z,22.93
2023-08-02T13:12:08.742Z,22.98
2023-08-02T13:14:36.273Z,22.84
2023-08-02T13:17:03.526Z,23.24
2023-08-02T13:19:30.644Z,23.46
2023-08-02T13:21:57.742Z,23.74
2023-08-02T13:24:24.805Z,23.68
2023-08-02T13:26:51.925Z,24.15
2023-08-02T13:29:20.227Z,24.22
2023-08-02T13:31:49.161Z,24.39
2023-08-02T13:34:17.268Z,24.24
2023-08-02T13:36:44.599Z,24.17
2023-08-02T13:39:12.556Z,23.44
2023-08-02T13:41:39.687Z,24.24
2023-08-02T13:44:07.130Z,24.11
2023-08-02T13:46:34.251Z,24.33
2023-08-02T13:49:01.820Z,24.63
2023-08-02T13:51:29.326Z,24.81
2023-08-02T13:53:56.367Z,25.25
2023-08-02T13:56:23.516Z,25.28
2023-08-02T13:58:50.569Z,24.78
2023-08-02T14:01:17.706Z,25.00
2023-08-02T14:03:44.792Z,25.23
2023-08-02T14:06:11.978Z,25.25
2023-08-02T14:08:39.212Z,24.78
2023-08-02T14:11:06.353Z,25.24
2023-08-02T14:13:33.423Z,25.14
2023-08-02T14:16:00.898Z,25.46
2023-08-02T14:18:28.009Z,25.30
2023-08-02T14:20:55.124Z,25.83
2023-08-02T14:23:25.000Z,26.28
2023-08-02T14:25:52.648Z,26.52
2023-08-02T14:28:19.744Z,26.58
2023-08-02T14:30:47.373Z,26.61
2023-08-02T14:33:14.550Z,26.40
2023-08-02T14:35:41.901Z,26.36
2023-08-02T14:38:09.006Z,26.52
2023-08-02T14:40:36.170Z,27.00
2023-08-02T14:43:04.258Z,27.10
2023-08-02T14:45:31.669Z,26.66
2023-08-02T14:47:58.810Z,27.01
2023-08-02T14:50:27.848Z,26.95
2023-08-02T14:52:55.259Z,26.19
2023-08-02T14:55:22.386Z,26.42
2023-08-02T14:57:49.464Z,25.99
2023-08-02T15:00:16.883Z,25.85
2023-08-02T15:02:44.028Z,26.27
2023-08-02T15:05:11.372Z,26.60
2023-08-02T15:07:38.431Z,26.67
2023-08-02T15:10:06.004Z,26.34
2023-08-02T15:12:33.105Z,26.93
2023-08-02T15:15:00.314Z,27.32
2023-08-02T15:17:27.370Z,27.18
2023-08-02T15:19:54.524Z,26.51
2023-08-02T15:22:21.580Z,26.66
2023-08-02T15:24:48.678Z,27.16
2023-08-02T15:27:15.773Z,27.59
2023-08-02T15:29:42.850Z,27.72
2023-08-02T15:32:09.904Z,27.97
2023-08-02T15:34:37.006Z,27.56
2023-08-02T15:37:04.348Z,27.81
2023-08-02T15:39:31.631Z,27.32
2023-08-02T15:41:58.788Z,27.61
2023-08-02T15:44:26.059Z,28.09
2023-08-02T15:46:53.335Z,28.30
2023-08-02T15:49:20.518Z,28.03
2023-08-02T15:51:47.670Z,28.24
2023-08-02T15:54:16.529Z,28.56
2023-08-02T15:56:45.389Z,28.69
2023-08-02T15:59:12.976Z,28.58
2023-08-02T16:01:40.214Z,28.84
2023-08-02T16:04:07.371Z,28.24
2023-08-02T16:06:34.544Z,27.83
2023-08-02T16:09:04.387Z,28.20
2023-08-02T16:11:31.611Z,28.00
2023-08-02T16:13:58.849Z,27.85
2023-08-02T16:16:26.118Z,27.56
2023-08-02T16:18:53.486Z,27.56
2023-08-02T16:21:20.833Z,27.82
2023-08-02T16:23:48.453Z,27.46
2023-08-02T16:26:15.723Z,27.61
2023-08-02T16:28:42.871Z,27.92
2023-08-02T16:31:10.044Z,27.35
2023-08-02T16:33:37.125Z,27.60
2023-08-02T16:36:04.360Z,27.29
2023-08-02T16:38:31.562Z,27.21
2023-08-02T16:40:58.802Z,27.03
2023-08-02T16:43:25.922Z,27.24
2023-08-02T16:45:53.067Z,26.98
2023-08-02T16:48:20.185Z,26.42
2023-08-02T16:50:47.268Z,26.92
2023-08-02T16:53:14.376Z,27.26
2023-08-02T16:55:41.560Z,27.13
2023-08-02T16:58:08.647Z,26.88
2023-08-02T17:00:35.736Z,26.11
2023-08-02T17:03:02.986Z,25.90
2023-08-02T17:05:31.768Z,26.15
2023-08-02T17:07:59.098Z,26.48
2023-08-02T17:10:26.505Z,26.51
2023-08-02T17:12:54.004Z,26.69
2023-08-02T17:15:21.455Z,26.37
2023-08-02T17:17:48.634Z,25.96
2023-08-02T17:20:15.872Z,26.17
2023-08-02T17:22:42.924Z,25.57
2023-08-02T17:25:10.079Z,24.93
2023-08-02T17:27:37.228Z,25.31
2023-08-02T17:30:04.599Z,25.78
2023-08-02T17:32:31.748Z,25.90
2023-08-02T17:34:58.883Z,25.60
2023-08-02T17:37:26.178Z,25.46
2023-08-02T17:39:55.756Z,25.76
2023-08-02T17:42:22.912Z,25.82
2023-08-02T17:44:49.973Z,25.91
2023-08-02T17:47:16.998Z,26.02
2023-08-02T17:49:44.067Z,25.98
2023-08-02T17:52:11.091Z,25.75
2023-08-02T17:54:38.164Z,25.82
2023-08-02T17:57:05.478Z,25.87
2023-08-02T17:59:32.659Z,26.19
2023-08-02T18:01:59.748Z,25.65
2023-08-02T18:04:26.936Z,25.94
2023-08-02T18:06:54.004Z,26.09
2023-08-02T18:09:21.125Z,26.18
2023-08-02T18:11:48.178Z,26.01
2023-08-02T18:14:15.604Z,24.99
2023-08-02T18:16:42.733Z,24.68
2023-08-02T18:19:09.952Z,24.29
2023-08-02T18:21:36.995Z,23.73
2023-08-02T18:24:04.221Z,23.76
2023-08-02T18:26:31.266Z,24.16
2023-08-02T18:28:58.587Z,24.48
2023-08-02T18:31:25.660Z,24.76
2023-08-02T18:33:52.821Z,25.17
2023-08-02T18:36:19.977Z,24.83
2023-08-02T18:38:47.042Z,24.94
2023-08-02T18:41:18.719Z,25.18
2023-08-02T18:43:48.200Z,25.38
2023-08-02T18:46:19.550Z,25.30
2023-08-02T18:48:49.460Z,24.97
2023-08-02T18:51:18.162Z,25.15
2023-08-02T18:53:48.780Z,25.41
2023-08-02T18:56:19.865Z,25.60
2023-08-02T18:58:48.971Z,25.85
2023-08-02T19:01:16.678Z,25.92
2023-08-02T19:03:43.921Z,25.94
2023-08-02T19:06:11.173Z,26.02
2023-08-02T19:08:43.890Z,26.17
2023-08-02T19:11:23.579Z,25.75
2023-08-02T19:13:51.425Z,25.44
2023-08-02T19:16:18.569Z,25.17
2023-08-02T19:18:45.862Z,25.47
2023-08-02T19:21:14.473Z,25.32
2023-08-02T19:23:43.809Z,25.47
2023-08-02T19:26:16.804Z,25.54
2023-08-02T19:28:44.229Z,25.16
2023-08-02T19:31:11.333Z,25.11
2023-08-02T19:33:41.465Z,24.48
2023-08-02T19:36:08.505Z,25.02
2023-08-02T19:38:35.586Z,24.83
2023-08-02T19:41:02.626Z,24.66
2023-08-02T19:43:29.743Z,25.11
2023-08-02T19:45:57.423Z,24.78
2023-08-02T19:48:25.348Z,25.11
2023-08-02T19:50:52.523Z,25.34
2023-08-02T19:53:19.676Z,25.36
2023-08-02T19:55:46.814Z,25.47
2023-08-02T19:58:16.339Z,25.58
2023-08-02T20:00:54.737Z,23.68
2023-08-02T20:03:23.621Z,23.71
2023-08-02T20:06:02.380Z,23.29
2023-08-02T20:08:33.814Z,22.24
2023-08-02T20:11:00.839Z,22.06
2023-08-02T20:13:33.087Z,22.38
2023-08-02T20:16:01.241Z,22.80
2023-08-02T20:18:28.337Z,23.22
2023-08-02T20:20:57.458Z,22.59
2023-08-02T20:23:25.993Z,23.71
2023-08-02T20:25:54.791Z,23.83
2023-08-02T20:28:21.927Z,24.10
2023-08-02T20:30:52.298Z,24.20
2023-08-02T20:33:20.977Z,24.69
2023-08-02T20:35:48.227Z,24.82
2023-08-02T20:38:16.672Z,25.00
2023-08-02T20:40:44.136Z,23.73
2023-08-02T20:43:13.551Z,23.35
2023-08-02T20:45:44.953Z,22.80
2023-08-02T20:48:12.407Z,21.66
2023-08-02T20:50:46.284Z,22.19
2023-08-02T20:53:15.216Z,22.18
2023-08-02T20:55:45.341Z,21.70
2023-08-02T20:58:20.903Z,21.55
2023-08-02T21:00:55.790Z,22.54
2023-08-02T21:03:23.298Z,21.63
2023-08-02T21:05:50.554Z,22.15
2023-08-02T21:08:17.591Z,21.62
2023-08-02T21:10:44.798Z,20.27
2023-08-02T21:13:11.881Z,19.38
2023-08-02T21:15:39.109Z,18.63
2023-08-02T21:18:06.410Z,18.44
2023-08-02T21:20:39.327Z,18.56
2023-08-02T21:23:10.628Z,18.65
2023-08-02T21:25:39.147Z,18.77
2023-08-02T21:28:15.069Z,19.00
2023-08-02T21:30:43.277Z,19.36
2023-08-02T21:33:11.294Z,19.75
2023-08-02T21:35:51.540Z,19.96
2023-08-02T21:38:23.575Z,20.20
2023-08-02T21:40:54.628Z,20.86
2023-08-02T21:43:22.934Z,21.13
2023-08-02T21:46:01.108Z,21.21
2023-08-02T21:48:28.686Z,21.53
2023-08-02T21:50:55.971Z,21.99
2023-08-02T21:53:24.676Z,22.06
2023-08-02T21:55:59.629Z,21.96
2023-08-02T21:58:36.112Z,22.14
